Date,TemperatureHighF,TemperatureAvgF,TemperatureLowF,DewpointHighF,DewpointAvgF,DewpointLowF,HumidityHigh,HumidityAvg,HumidityLow,PressureMaxIn,PressureMinIn,WindSpeedMaxMPH,WindSpeedAvgMPH,GustSpeedMaxMPH,PrecipitationSumIn
2013-1-1,42,39,30,30,27,13,69,62,47,29.87,29.69,14,4,14,0.00
2013-1-2,35,27,24,14,10,7,57,47,36,30.03,29.83,17,1,17,0.00
2013-1-3,37,27,21,19,12,10,68,55,35,30.14,29.93,8,0,8,0.00
2013-1-4,39,33,26,23,19,16,69,57,46,30.14,29.99,19,0,19,0.00
2013-1-5,43,34,28,27,23,20,81,65,52,30.32,30.05,11,0,11,0.00
2013-1-6,48,37,31,39,31,22,100,79,58,30.25,30.00,2,0,2,0.02
2013-1-7,50,37,25,35,28,21,87,70,45,30.42,30.07,11,0,11,0.00
2013-1-8,52,35,22,37,29,21,98,82,55,30.45,30.36,12,0,12,0.00
2013-1-9,53,43,29,44,37,28,100,81,63,30.40,30.16,10,0,10,0.00
2013-1-10,53,44,32,36,30,25,78,59,40,30.55,30.27,11,0,11,0.00
2013-1-11,48,41,32,47,38,26,100,88,76,30.53,30.09,0,0,0,0.26
2013-1-12,49,46,44,49,46,44,100,100,100,30.18,30.06,0,0,0,0.00
2013-1-13,54,48,41,51,47,41,100,98,86,30.17,30.02,0,0,0,0.00
2013-1-14,60,52,40,58,47,31,100,84,50,30.29,29.95,0,0,0,0.04
2013-1-15,40,38,35,39,34,30,100,85,70,30.35,30.20,0,0,0,0.14
2013-1-16,40,36,34,40,36,34,100,99,94,30.20,29.79,0,0,0,0.31
2013-1-17,45,39,36,38,33,28,100,81,61,30.10,29.94,0,0,0,0.00
2013-1-18,42,30,22,28,15,4,73,54,32,30.52,29.99,0,0,0,0.01
2013-1-19,54,45,33,32,29,25,75,55,37,30.33,29.95,0,0,0,0.00
2013-1-20,58,45,32,35,27,13,70,51,32,30.05,29.74,0,0,0,0.00
2013-1-21,34,29,25,25,16,-2,92,59,23,30.12,29.84,0,0,0,0.00
2013-1-22,25,20,12,18,0,-7,75,42,33,30.24,29.84,0,0,0,0.00
2013-1-23,12,9,7,-4,-7,-9,54,47,40,30.27,30.21,0,0,0,0.00
2013-1-25,22,17,13,17,14,10,93,88,62,30.23,30.09,3,0,3,0.00
2013-1-26,29,16,12,14,10,7,92,79,41,30.39,30.07,13,1,13,0.00
2013-1-27,35,20,12,15,9,6,78,64,40,30.55,30.39,13,1,13,0.00
2013-1-28,36,26,20,35,22,13,96,82,70,30.51,30.03,7,0,7,0.09
2013-1-29,54,39,34,46,37,33,98,94,66,30.15,30.01,7,0,7,0.00
2013-1-30,68,50,42,60,48,41,99,94,73,30.07,29.39,23,2,23,0.00
2013-1-31,62,54,30,60,47,11,96,78,34,29.83,29.11,25,10,25,0.48
2013-2-1,33,16,0,21,12,5,73,50,32,30.22,29.84,13,3,19,0.00
2013-2-2,32,22,17,22,8,3,89,55,32,30.28,30.03,11,2,12,0.00
2013-2-3,33,28,22,25,22,18,90,77,64,29.89,29.75,8,0,9,0.00
2013-2-4,31,27,21,22,15,10,82,62,42,29.98,29.90,15,2,15,0.00
2013-2-5,34,29,27,32,27,22,96,91,81,29.96,29.88,7,0,7,0.00
2013-2-6,41,35,29,29,23,17,97,64,46,30.35,30.02,15,2,15,0.01
2013-2-7,36,31,23,30,19,12,79,62,52,30.50,30.33,8,1,9,0.00
2013-2-8,42,37,30,41,36,29,98,96,93,30.12,29.62,20,4,20,1.32
2013-2-9,35,29,23,30,24,8,98,82,40,30.36,29.77,20,3,21,0.00
2013-2-10,41,30,12,24,15,4,85,57,25,30.52,30.36,6,0,6,0.04
2013-2-11,55,50,36,54,49,35,99,97,93,30.16,0.00,13,2,13,0.41
2013-2-12,48,42,31,29,26,24,77,55,44,30.01,29.86,20,3,20,0.00
2013-2-13,43,36,24,32,30,22,97,79,52,29.95,29.70,9,1,9,0.01
2013-2-14,48,36,32,36,33,30,98,92,51,30.05,29.73,6,1,6,0.25
2013-2-15,59,47,31,39,35,30,99,67,34,30.06,29.94,11,1,11,0.00
2013-2-16,44,38,32,35,32,18,91,80,53,29.98,29.75,11,2,11,0.00
2013-2-17,34,30,21,18,10,0,56,44,29,30.04,29.70,22,5,23,0.00
2013-2-18,37,29,18,16,9,2,66,44,30,30.30,30.21,15,2,15,0.00
2013-2-19,53,35,26,46,26,14,96,71,46,30.26,29.72,19,2,19,0.23
2013-2-20,39,32,26,29,18,10,68,56,41,30.05,29.78,19,5,20,0.00
2013-2-21,37,27,24,16,13,11,64,57,40,30.30,30.03,20,4,22,0.00
2013-2-22,37,28,23,34,20,15,95,73,63,30.42,30.28,8,1,8,0.01
2013-2-23,46,42,35,46,41,34,99,98,95,30.29,29.80,16,1,16,0.60
2013-2-24,50,38,32,41,35,23,98,88,53,30.02,29.77,16,2,17,0.01
2013-2-25,45,34,28,29,25,23,82,70,49,30.26,30.02,8,1,9,0.00
2013-2-26,46,33,26,40,30,24,96,87,59,30.30,29.84,18,2,20,0.34
2013-2-27,55,45,41,52,43,38,99,93,65,29.85,29.52,22,6,22,1.01
2013-2-28,50,42,37,40,37,28,95,82,55,29.67,29.58,10,1,10,0.00
2013-3-1,46,37,33,33,31,27,92,79,49,29.81,29.65,12,2,14,0.00
2013-3-2,43,36,31,27,25,23,73,65,48,29.82,29.73,12,3,14,0.00
2013-3-3,39,32,29,23,21,19,72,63,46,29.80,29.71,13,4,13,0.00
2013-3-4,43,32,28,22,19,17,67,59,41,29.95,29.80,18,4,18,0.00
2013-3-5,50,34,29,29,24,22,91,67,40,30.05,29.95,12,2,12,0.00
2013-3-6,41,38,29,38,34,27,95,86,80,29.99,29.77,27,7,35,0.34
2013-3-7,41,36,34,36,33,31,96,89,74,30.10,29.90,19,4,19,0.18
2013-3-8,41,34,32,36,32,30,97,93,70,30.20,30.02,13,2,13,0.40
2013-3-9,58,38,28,30,26,16,92,66,20,30.35,30.18,11,2,11,0.06
2013-3-10,47,33,27,37,30,26,98,91,67,30.41,30.33,10,0,10,0.00
2013-3-11,57,39,31,49,37,30,99,93,69,30.35,30.11,10,1,10,0.00
2013-3-12,58,53,47,56,49,41,97,88,78,30.12,29.70,20,3,20,0.62
2013-3-13,52,43,37,41,34,23,86,72,36,29.94,29.83,13,2,14,0.00
2013-3-14,42,35,31,27,18,9,64,52,30,30.00,29.90,20,5,22,0.00
2013-3-15,50,36,29,27,16,10,56,45,37,30.04,29.75,18,3,19,0.00
2013-3-16,42,37,33,33,29,23,96,73,51,29.94,29.79,6,0,6,0.00
2013-3-17,40,32,29,33,27,18,97,81,45,30.32,29.94,12,1,12,0.17
2013-3-18,40,32,27,39,24,15,97,73,55,30.41,29.96,17,2,21,0.55
2013-3-19,50,41,39,40,37,18,98,87,39,29.96,29.73,18,5,18,0.42
2013-3-20,48,38,31,25,20,16,63,49,28,29.94,29.82,18,4,18,0.00
2013-3-21,38,34,30,29,24,13,89,66,41,29.84,29.67,12,1,14,0.01
2013-3-22,43,32,27,22,18,14,70,56,36,29.94,29.79,15,2,16,0.00
2013-3-23,48,37,29,22,21,19,70,54,32,29.97,29.85,16,2,19,0.00
2013-3-24,48,34,28,30,21,19,76,58,34,29.99,29.72,11,1,11,0.00
2013-3-25,39,37,33,35,32,29,97,82,72,29.72,29.47,17,3,17,0.87
2013-3-26,50,38,33,38,33,28,98,84,47,29.90,29.62,11,1,12,0.32
2013-3-27,53,40,34,32,29,22,76,66,31,30.02,29.90,19,2,19,0.00
2013-3-28,50,40,34,34,30,27,85,69,43,30.14,30.00,12,2,12,0.00
2013-3-29,56,42,35,31,29,26,79,63,33,30.18,30.08,13,1,13,0.00
2013-3-30,59,43,36,34,29,20,80,62,23,30.21,30.10,12,1,12,0.00
2013-3-31,57,46,31,49,38,28,98,77,38,30.17,29.70,11,2,13,0.53
2013-4-1,66,49,39,49,40,15,98,77,34,29.93,29.64,17,3,20,0.01
2013-4-2,46,36,28,18,14,11,62,42,25,30.11,29.93,17,2,18,0.00
2013-4-3,48,37,30,17,14,10,51,39,24,30.31,30.11,16,2,19,0.00
2013-4-4,54,36,28,30,18,11,69,48,28,30.42,30.12,10,1,11,0.00
2013-4-5,65,44,38,42,32,17,96,68,18,30.12,29.72,12,1,14,0.13
2013-4-6,51,40,34,29,21,11,81,47,23,30.34,30.01,13,3,13,0.00
2013-4-7,62,44,34,45,35,29,83,71,39,30.33,30.03,15,1,16,0.00
2013-4-8,74,57,49,52,46,44,85,69,34,30.09,29.99,12,2,12,0.00
2013-4-9,86,67,56,54,51,40,84,61,22,30.00,29.92,16,3,18,0.00
2013-4-10,82,66,54,59,53,48,97,64,38,29.95,29.79,16,3,20,0.33
2013-4-11,62,57,46,62,55,44,100,95,76,30.02,29.77,15,2,17,0.03
2013-4-12,46,45,43,45,44,43,99,97,90,30.00,29.69,25,7,25,1.29
2013-4-13,60,46,40,46,42,35,99,89,41,30.00,29.73,11,1,11,0.02
2013-4-14,62,47,40,48,40,26,100,82,28,30.21,29.99,19,1,19,0.00
2013-4-15,57,48,43,44,36,31,88,65,44,30.38,30.21,13,2,13,0.00
2013-4-16,72,53,46,56,48,43,93,84,56,30.38,30.15,12,1,12,0.00
2013-4-17,72,59,47,57,52,42,95,78,37,30.30,30.12,12,2,12,0.00
2013-4-18,60,49,43,58,46,40,98,87,65,30.34,30.10,13,1,13,0.00
2013-4-19,78,63,57,66,60,56,99,91,62,30.10,29.68,19,2,25,0.05
2013-4-20,65,52,48,64,44,25,96,78,32,30.31,29.69,16,3,16,0.33
2013-4-21,54,42,34,32,25,21,88,51,30,30.63,30.30,14,3,15,0.00
2013-4-22,48,38,31,40,34,29,96,84,60,30.65,30.48,26,3,26,0.00
2013-4-23,51,45,43,44,39,37,95,82,76,30.48,30.12,18,5,18,0.01
2013-4-24,75,49,38,55,44,36,97,84,44,30.12,29.86,14,1,14,0.00
2013-4-25,66,54,43,54,41,24,89,65,22,30.29,29.91,14,3,14,0.02
2013-4-26,67,49,42,39,36,24,85,65,21,30.41,30.28,13,0,13,0.00
2013-4-27,68,49,40,39,35,27,84,64,23,30.44,30.32,12,0,12,0.00
2013-4-28,70,48,38,47,37,28,95,71,23,30.34,30.23,14,0,14,0.00
2013-4-29,56,54,51,52,50,47,95,86,73,30.25,30.17,11,1,12,0.23
2013-4-30,64,53,43,50,46,33,93,80,35,30.34,30.19,15,2,17,0.00
2013-5-1,62,47,41,48,41,34,96,83,38,30.49,30.33,15,1,16,0.00
2013-5-2,68,48,41,49,42,38,99,83,35,30.48,30.35,11,0,12,0.00
2013-5-3,60,50,43,48,44,37,96,80,46,30.47,30.37,15,2,17,0.00
2013-5-4,62,47,42,48,42,38,99,87,43,30.38,30.27,14,1,14,0.00
2013-5-5,57,46,39,45,41,38,97,84,58,30.30,30.24,16,2,17,0.00
2013-5-6,61,51,48,53,47,45,97,89,66,30.27,30.17,11,1,11,0.00
2013-5-7,65,54,50,58,52,49,99,94,76,30.18,30.08,12,1,12,0.09
2013-5-8,74,61,56,65,59,53,99,94,57,30.10,29.95,10,2,11,0.94
2013-5-9,72,59,56,60,56,54,99,90,56,30.01,29.91,15,0,16,0.36
2013-5-10,84,62,54,62,56,53,99,85,36,30.02,29.90,12,0,14,0.00
2013-5-11,80,65,62,68,63,58,100,94,62,29.93,29.70,10,1,11,1.20
2013-5-12,69,60,50,65,52,28,100,80,25,29.98,29.68,17,1,20,0.07
2013-5-13,59,49,38,37,33,24,91,57,32,30.12,29.98,15,2,15,0.00
2013-5-14,63,50,37,38,32,24,86,54,23,30.17,30.05,14,1,14,0.00
2013-5-15,77,59,42,60,50,34,88,73,45,30.11,29.71,10,0,13,0.00
2013-5-16,82,68,57,62,58,48,98,72,36,29.87,29.72,11,0,11,0.02
2013-5-17,76,66,53,62,46,39,90,51,28,30.21,29.85,10,1,10,0.00
2013-5-18,67,58,50,56,53,47,96,85,66,30.33,30.21,7,0,8,0.05
2013-5-19,60,58,55,60,57,54,100,98,96,30.31,30.17,11,1,12,0.54
2013-5-20,82,68,60,72,65,60,100,92,65,30.19,29.99,7,1,7,0.01
2013-5-21,87,75,64,73,68,63,100,81,55,30.00,29.86,12,1,12,0.00
2013-5-22,88,75,66,75,70,66,99,87,60,29.93,29.84,8,0,8,0.00
2013-5-23,82,73,67,75,68,66,98,85,65,29.92,29.78,12,1,12,0.18
2013-5-24,68,57,45,66,56,43,99,95,83,29.99,29.71,13,1,13,0.41
2013-5-25,60,52,44,48,42,35,97,72,45,30.04,29.94,17,2,20,0.18
2013-5-26,71,58,46,43,38,32,81,50,26,30.22,30.01,20,2,20,0.00
2013-5-27,76,60,40,48,40,34,95,55,24,30.28,30.15,10,1,12,0.00
2013-5-28,69,60,48,62,56,46,99,87,51,30.24,30.13,9,0,9,0.61
2013-5-29,91,74,58,72,65,57,100,76,41,30.14,30.03,11,1,11,0.00
2013-5-30,94,82,70,71,66,60,89,63,33,30.16,30.07,12,1,12,0.00
2013-5-31,96,82,68,72,66,57,97,64,29,30.15,30.02,7,1,8,0.00
2013-6-1,93,80,68,71,68,63,93,68,40,30.05,29.92,13,1,14,0.00
2013-6-2,90,78,69,74,70,67,97,77,51,29.95,29.82,18,1,22,0.77
2013-6-3,80,72,67,73,70,66,99,93,68,29.89,29.80,9,0,9,0.79
2013-6-4,76,66,56,66,51,45,97,61,34,30.12,29.89,11,1,11,0.00
2013-6-5,73,63,49,57,52,44,97,69,50,30.22,30.11,9,1,9,0.00
2013-6-6,72,64,55,63,59,50,99,87,47,30.15,30.00,11,1,12,0.04
2013-6-7,70,65,62,70,64,61,100,99,96,30.01,29.57,10,1,10,3.73
2013-6-8,78,68,58,70,64,58,100,88,67,30.08,29.54,11,1,11,0.49
2013-6-9,84,72,60,67,62,59,98,73,45,30.19,30.07,9,0,9,0.00
2013-6-10,71,68,63,71,67,62,100,97,84,30.17,29.83,6,0,7,2.85
2013-6-11,83,75,68,71,68,63,99,82,59,29.83,29.67,13,2,14,0.04
2013-6-12,83,73,61,63,60,55,93,65,42,29.87,29.75,12,1,15,0.00
2013-6-13,76,64,59,69,62,57,98,92,65,29.87,29.42,15,1,15,1.25
2013-6-14,75,62,55,61,56,54,97,84,56,29.86,29.48,13,1,15,0.11
2013-6-15,82,64,56,63,58,53,97,83,39,30.04,29.92,14,1,15,0.00
2013-6-16,85,72,60,69,63,58,95,75,50,30.03,29.82,13,1,19,0.00
2013-6-17,88,75,64,71,67,64,99,78,51,29.94,29.85,11,1,11,0.00
2013-6-18,80,69,63,71,66,62,99,90,69,29.92,29.81,12,0,14,1.25
2013-6-19,78,68,56,65,58,49,99,75,38,30.18,29.87,9,1,9,0.02
2013-6-20,82,68,54,62,56,51,100,70,44,30.30,30.18,11,0,11,0.00
2013-6-21,82,69,55,62,56,53,98,67,43,30.34,30.27,8,0,9,0.00
2013-6-22,85,66,54,66,59,53,99,82,44,30.29,30.16,11,0,11,0.00
2013-6-23,89,75,62,78,68,56,99,80,53,30.23,30.09,9,0,9,0.44
2013-6-24,92,78,71,78,72,64,100,82,54,30.11,29.99,8,1,11,0.00
2013-6-25,92,79,68,76,70,65,97,76,52,30.02,29.85,13,1,14,0.00
2013-6-26,91,80,71,77,70,66,98,74,47,29.89,29.79,9,1,11,0.37
2013-6-27,89,80,71,77,74,71,99,83,61,29.84,29.60,12,2,12,0.08
2013-6-28,88,78,70,74,72,68,97,83,56,29.61,29.50,10,1,11,0.04
2013-6-29,87,75,66,76,70,66,100,85,55,29.64,29.51,7,0,10,0.03
2013-6-30,77,75,74,75,74,72,96,94,90,29.92,29.83,6,0,7,0.07
2013-7-1,86,76,73,78,74,72,97,94,74,30.07,29.91,7,0,9,0.17
2013-7-2,86,77,73,77,74,72,98,91,72,30.22,30.06,8,0,9,0.12
2013-7-3,87,77,70,80,74,70,99,91,73,30.27,30.18,7,0,8,0.39
2013-7-4,91,81,74,78,75,72,99,83,59,30.28,30.19,12,1,12,0.00
2013-7-5,93,82,72,78,74,71,98,77,51,30.25,30.12,12,1,12,0.00
2013-7-6,95,84,74,78,75,72,97,75,49,30.18,30.05,9,1,11,0.00
2013-7-7,95,84,74,78,74,70,96,74,53,30.10,29.96,12,1,12,0.00
2013-7-8,90,77,71,74,71,68,96,82,54,30.08,30.01,8,1,9,0.09
2013-7-9,89,79,69,76,72,68,99,81,61,30.10,30.01,9,0,9,0.00
2013-7-10,88,80,72,79,75,71,99,87,65,30.05,29.84,12,1,13,0.17
2013-7-11,88,79,74,77,74,69,98,85,60,29.93,29.84,7,0,7,0.22
2013-7-12,76,72,69,71,69,66,99,89,78,30.07,29.92,13,2,19,0.75
2013-7-13,87,78,71,79,75,71,100,90,72,30.30,30.07,12,1,12,0.01
2013-7-14,92,82,74,78,75,73,99,82,57,30.36,30.27,6,1,9,0.00
2013-7-15,95,84,73,78,75,73,98,76,50,30.28,30.14,7,1,9,0.00
2013-7-16,95,84,74,76,72,67,96,71,41,30.21,30.14,7,0,7,0.00
2013-7-17,96,84,73,76,73,71,97,71,47,30.20,30.09,6,0,6,0.00
2013-7-18,99,87,76,79,75,71,89,70,46,30.10,29.98,7,1,7,0.00
2013-7-19,98,88,79,82,78,76,95,73,50,30.00,29.83,12,2,12,0.00
2013-7-20,96,85,78,77,75,71,85,72,48,29.87,29.75,12,2,13,0.00
2013-7-21,86,78,73,75,72,65,98,84,54,29.97,29.85,11,1,11,0.03
2013-7-22,85,77,73,79,75,73,99,94,79,29.97,29.81,9,0,9,2.28
2013-7-23,90,79,72,77,74,72,100,87,61,29.81,29.60,10,1,10,0.41
2013-7-24,85,77,71,73,69,59,97,77,62,29.93,29.65,5,1,8,0.00
2013-7-25,71,66,64,62,60,57,91,79,66,30.05,29.92,12,1,13,0.00
2013-7-26,82,72,64,69,65,61,95,78,52,30.08,30.00,7,0,8,0.00
2013-7-27,86,73,61,70,66,61,100,80,49,30.08,29.98,11,1,12,0.00
2013-7-28,82,72,62,73,68,61,100,89,65,30.01,29.93,9,0,10,0.13
2013-7-29,86,75,66,72,66,56,100,76,42,30.13,29.97,9,1,9,0.03
2013-7-30,83,71,60,63,60,57,95,70,43,30.20,30.13,6,1,9,0.00
2013-7-31,84,72,59,66,62,58,97,73,45,30.19,30.07,7,0,7,0.00
2013-8-1,74,70,67,70,68,64,99,92,83,30.07,29.85,5,0,11,0.91
2013-8-2,86,76,68,70,67,63,100,78,50,29.95,29.83,11,1,11,0.00
2013-8-3,80,71,65,70,68,64,98,88,68,29.95,29.89,9,0,9,0.02
2013-8-4,81,72,61,66,61,55,100,72,44,30.00,29.87,13,1,13,0.00
2013-8-5,79,68,58,61,55,47,90,66,34,30.08,30.00,7,0,8,0.00
2013-8-6,81,70,57,66,59,54,97,72,42,30.15,30.06,9,0,9,0.00
2013-8-7,80,72,67,70,68,65,95,85,67,30.16,30.09,9,0,9,0.00
2013-8-8,85,76,71,78,73,70,99,91,76,30.10,30.02,7,0,8,0.55
2013-8-9,86,79,74,79,76,73,99,90,75,30.05,29.84,12,1,12,0.05
2013-8-10,84,76,68,76,70,64,99,81,56,30.07,29.89,7,0,7,0.00
2013-8-11,83,72,62,68,63,58,97,75,50,30.15,30.05,7,0,8,0.00
2013-8-12,82,73,66,73,70,66,99,90,69,30.06,29.95,6,0,6,0.00
2013-8-13,80,71,66,74,70,66,100,96,76,29.96,29.74,8,0,14,1.96
2013-8-14,75,68,59,70,56,51,97,68,47,30.08,29.77,12,1,17,0.00
2013-8-15,79,66,54,59,54,48,92,70,35,30.18,30.08,7,0,8,0.00
2013-8-16,80,67,56,60,56,50,97,72,39,30.23,30.15,11,0,11,0.00
2013-8-17,81,67,54,64,59,53,100,77,44,30.30,30.23,8,0,8,0.00
2013-8-18,76,67,60,67,62,58,98,85,54,30.28,30.16,6,0,8,0.02
2013-8-19,78,69,60,68,63,59,99,83,59,30.17,30.07,8,0,8,0.00
2013-8-20,88,75,63,73,68,63,100,82,50,30.16,30.09,6,0,6,0.00
2013-8-21,90,77,67,72,68,62,99,77,40,30.21,30.09,8,1,8,0.00
2013-8-22,82,74,70,75,71,68,97,91,77,30.10,29.91,9,0,9,0.24
2013-8-23,79,71,62,70,64,61,97,81,58,30.10,29.91,3,0,3,0.01
2013-8-24,78,69,58,62,59,51,97,74,40,30.36,30.10,11,1,11,0.00
2013-8-25,83,75,63,58,55,52,75,52,35,30.39,30.28,7,1,8,0.00
2013-8-26,85,73,63,68,63,56,88,73,51,30.29,29.96,10,1,11,0.00
2013-8-27,89,77,70,72,70,68,96,78,52,29.95,29.87,9,1,10,0.05
2013-8-28,83,73,66,75,71,66,99,95,73,29.92,29.86,3,0,5,0.07
2013-8-29,79,72,66,71,69,65,100,91,71,30.06,29.89,9,1,9,0.01
2013-8-30,84,74,68,72,69,66,98,86,66,30.05,29.91,9,1,10,0.00
2013-8-31,90,78,70,76,72,69,98,84,62,29.93,29.82,12,1,12,0.00
2013-9-1,90,77,72,77,73,70,99,90,60,29.89,29.81,9,0,9,0.57
2013-9-2,82,75,70,76,74,70,100,97,79,29.83,29.75,5,0,5,0.17
2013-9-3,83,74,65,74,68,60,100,85,55,29.92,29.74,4,0,10,0.00
2013-9-4,82,70,59,63,60,56,96,73,45,30.04,29.92,10,1,10,0.00
2013-9-5,79,68,55,65,58,46,94,71,43,30.16,29.98,10,1,10,0.00
2013-9-6,73,60,50,52,49,44,95,71,37,30.28,30.16,8,0,9,0.00
2013-9-7,80,62,45,60,52,45,100,73,35,30.17,29.95,8,0,8,0.00
2013-9-8,84,72,60,68,61,49,96,71,48,30.09,29.85,11,1,12,0.00
2013-9-9,74,64,53,61,55,48,94,74,53,30.26,30.10,12,1,12,0.00
2013-9-10,89,76,64,76,70,61,93,82,63,30.22,30.08,10,1,10,0.00
2013-9-11,96,82,73,79,74,71,97,77,50,30.16,30.01,9,1,9,0.00
2013-9-12,89,77,70,78,72,69,98,88,62,30.03,29.73,12,0,12,0.53
2013-9-13,78,69,59,69,63,52,99,82,55,29.89,29.67,11,1,11,0.19
2013-9-14,67,58,50,52,50,47,94,75,55,30.17,29.89,10,1,10,0.00
2013-9-15,74,59,45,56,50,43,97,75,43,30.26,30.12,10,0,10,0.00
2013-9-16,71,61,54,62,58,53,99,88,65,30.24,30.07,4,0,8,0.04
2013-9-17,64,54,44,53,44,40,97,70,43,30.45,30.24,10,1,10,0.00
2013-9-18,71,56,43,54,48,41,98,78,44,30.39,30.24,7,0,7,0.00
2013-9-19,77,59,46,58,52,45,100,81,44,30.24,30.11,8,0,8,0.00
2013-9-20,79,63,49,62,56,49,100,82,49,30.13,30.03,9,0,9,0.00
2013-9-21,80,66,50,69,62,49,100,87,51,30.05,29.72,10,1,11,0.07
2013-9-22,71,64,54,69,55,44,99,76,46,29.94,29.69,10,1,13,0.43
2013-9-23,68,56,45,48,45,42,91,69,47,30.07,29.94,11,1,11,0.00
2013-9-24,72,56,43,54,48,42,96,76,46,30.10,29.92,10,0,10,0.00
2013-9-25,75,60,45,56,50,44,98,75,42,29.99,29.91,6,0,6,0.00
2013-9-26,72,58,46,61,54,46,100,89,64,30.13,29.97,7,0,7,0.00
2013-9-27,68,60,51,58,55,51,100,86,59,30.29,30.12,9,0,9,0.00
2013-9-28,71,62,52,58,55,51,98,80,55,30.34,30.26,11,1,12,0.00
2013-9-29,69,58,49,60,53,48,100,85,61,30.26,30.10,11,1,11,0.00
2013-9-30,72,58,47,59,54,47,100,86,52,30.11,30.01,6,0,6,0.00
2013-10-1,82,65,53,63,58,52,99,80,51,30.05,29.94,13,0,13,0.01
2013-10-2,84,70,58,65,62,56,98,78,48,30.05,29.96,13,1,13,0.00
2013-10-3,79,68,59,63,60,56,99,79,53,30.15,30.05,6,0,6,0.00
2013-10-4,87,70,56,68,63,56,99,80,49,30.11,30.00,10,0,10,0.00
2013-10-5,76,68,63,68,65,62,99,92,76,30.12,30.04,7,0,7,0.00
2013-10-6,75,68,65,70,67,65,100,97,85,30.12,30.04,8,1,8,0.00
2013-10-7,79,68,59,72,66,57,100,94,77,30.05,29.83,18,1,18,0.24
2013-10-8,67,57,51,57,50,46,94,79,48,30.33,30.04,8,0,10,0.00
2013-10-9,62,59,53,54,51,45,87,76,62,30.39,30.27,18,2,18,0.00
2013-10-10,62,59,55,61,57,52,98,93,76,30.28,30.06,14,2,14,0.36
2013-10-11,65,62,60,63,61,59,99,95,88,30.08,30.00,15,2,15,0.60
2013-10-12,68,63,60,60,56,50,94,79,63,30.27,30.07,17,3,19,0.02
2013-10-13,64,60,55,57,54,50,88,81,67,30.39,30.26,15,3,18,0.00
2013-10-14,64,55,47,56,51,47,99,87,68,30.38,30.28,8,0,9,0.00
2013-10-15,68,55,45,58,50,44,100,85,43,30.29,30.13,9,1,9,0.00
2013-10-16,68,60,51,61,58,50,100,93,77,30.14,29.96,6,0,6,0.00
2013-10-17,62,61,61,62,60,60,99,98,96,29.96,29.92,4,0,5,0.00
2013-10-18,66,62,55,64,51,47,96,70,51,29.95,29.74,16,7,16,0.01
2013-10-19,64,54,39,58,50,38,99,85,64,30.03,29.80,8,0,8,0.02
2013-10-20,64,54,42,57,43,36,95,69,37,30.12,29.81,11,1,11,0.00
2013-10-21,69,52,38,47,41,36,99,73,35,30.20,30.03,9,0,9,0.00
2013-10-22,70,53,42,53,46,39,100,80,49,30.03,29.80,11,1,11,0.00
2013-10-23,54,47,40,50,42,37,95,83,66,29.85,29.64,8,0,15,0.05
2013-10-24,54,44,37,38,34,28,93,69,39,30.08,29.81,9,1,13,0.00
2013-10-25,55,43,35,36,33,30,85,69,44,30.29,30.08,14,0,14,0.00
2013-10-26,57,45,30,37,33,28,97,68,37,30.28,29.95,15,1,16,0.00
2013-10-27,59,50,38,37,34,32,80,57,39,30.17,29.94,13,1,13,0.00
2013-10-28,63,46,30,41,36,29,96,71,40,30.34,30.17,11,0,11,0.00
2013-10-29,57,46,38,46,41,36,97,81,60,30.42,30.34,10,0,12,0.00
2013-10-30,58,48,37,56,46,36,99,96,85,30.39,30.23,5,0,5,0.03
2013-10-31,70,61,51,63,58,51,100,89,73,30.27,29.88,12,1,12,0.04
2013-11-1,70,64,58,66,61,57,100,90,69,29.86,29.62,13,4,13,0.21
2013-11-2,69,62,51,60,52,46,100,73,43,29.72,29.66,7,1,7,0.01
2013-11-3,69,57,34,46,38,23,70,50,41,30.47,29.66,11,2,11,0.00
2013-11-4,34,34,34,23,23,23,66,65,65,30.48,30.47,3,0,3,0.00
2013-11-5,58,45,33,44,39,31,97,81,57,30.67,30.52,8,0,10,0.00
2013-11-6,65,51,32,57,46,32,100,86,60,30.53,30.11,10,0,11,0.00
2013-11-7,65,56,38,61,53,34,97,89,71,30.11,29.80,18,1,18,0.10
2013-11-8,50,43,34,38,31,28,87,65,43,30.28,29.99,17,1,18,0.00
2013-11-9,52,42,31,36,30,26,88,65,39,30.35,30.05,8,0,8,0.00
2013-11-10,62,50,41,38,34,27,82,56,34,30.12,29.87,20,2,21,0.00
2013-11-11,57,48,38,37,31,27,65,52,35,30.27,30.02,14,2,14,0.00
2013-11-12,51,39,29,39,28,18,95,66,49,30.34,29.98,17,1,17,0.01
2013-11-13,40,31,23,20,17,11,75,57,30,30.42,30.33,12,1,12,0.00
2013-11-14,56,41,28,27,18,11,75,45,17,30.34,30.23,14,2,14,0.00
2013-11-15,60,44,33,36,32,26,94,65,31,30.31,30.21,5,0,6,0.00
2013-11-16,56,46,40,50,43,34,99,88,76,30.38,30.28,5,0,5,0.07
2013-11-17,68,56,46,62,55,46,100,97,83,30.30,29.83,7,0,8,0.00
2013-11-18,68,60,51,64,44,29,99,60,27,29.84,29.67,16,2,16,0.20
2013-11-19,51,44,31,30,26,23,74,50,41,30.39,29.84,11,2,17,0.00
2013-11-20,46,34,25,26,20,10,85,58,24,30.64,30.39,11,1,11,0.00
2013-11-21,54,43,30,43,36,18,88,75,60,30.64,30.43,12,1,12,0.00
2013-11-22,59,52,45,53,49,42,96,89,76,30.43,29.96,11,1,14,0.00
2013-11-23,53,43,32,52,29,15,94,57,39,30.08,29.96,20,2,20,0.00
2013-11-24,32,26,22,15,4,0,51,38,31,30.46,30.06,23,3,23,0.00
2013-11-25,37,26,19,16,12,4,74,54,37,30.56,30.44,11,1,11,0.00
2013-11-26,55,39,32,55,32,20,99,77,45,30.40,29.76,20,1,20,0.68
2013-11-27,64,48,34,63,46,23,99,93,65,29.83,29.39,20,3,22,1.39
2013-11-28,37,32,29,25,19,13,71,59,38,30.52,29.83,17,3,17,0.00
2013-11-29,41,32,23,24,21,19,93,68,45,30.76,30.52,9,0,9,0.00
2013-11-30,39,33,25,32,25,16,87,73,59,30.77,30.40,10,1,10,0.00
2013-12-1,53,41,31,36,33,28,93,75,52,30.40,30.06,6,0,6,0.00
2013-12-2,54,40,32,36,33,29,98,77,39,30.06,29.92,2,0,4,0.00
2013-12-3,55,42,34,42,38,32,99,86,57,30.05,29.91,5,0,5,0.00
2013-12-4,54,43,32,47,40,31,98,89,67,30.17,30.05,5,0,5,0.00
2013-12-5,64,55,47,58,54,46,100,95,81,30.16,29.98,8,0,10,0.01
2013-12-6,63,50,39,62,50,39,100,98,92,30.16,29.92,11,1,11,0.72
2013-12-7,41,36,29,39,32,23,98,84,66,30.55,30.11,12,1,12,0.14
2013-12-8,34,30,25,34,25,18,99,84,66,30.63,30.36,7,0,7,0.00
2013-12-9,42,38,34,42,37,34,100,99,98,30.37,30.01,10,1,11,0.37
2013-12-10,34,32,26,34,31,24,100,97,89,30.21,29.90,8,0,8,0.00
2013-12-11,34,27,20,25,21,17,96,79,55,30.41,30.21,12,0,12,0.00
2013-12-12,29,22,18,19,13,8,92,68,44,30.41,30.24,11,0,11,0.00
2013-12-13,38,26,13,19,15,9,85,64,44,30.38,30.20,11,1,12,0.00
2013-12-14,51,34,25,51,32,19,100,91,76,30.49,29.72,19,2,19,1.21
2013-12-15,54,38,30,54,34,23,100,86,66,29.92,29.53,19,2,21,0.33
2013-12-16,32,27,17,25,14,10,84,60,41,30.28,29.91,14,1,14,0.00
2013-12-17,39,30,21,39,27,16,99,90,68,30.27,29.96,7,0,7,0.05
2013-12-18,39,30,22,26,23,20,93,77,51,30.24,29.96,12,1,12,0.00
2013-12-19,50,36,22,33,27,20,93,71,46,30.26,30.09,10,0,10,0.00
2013-12-20,56,48,36,52,37,31,90,68,46,30.15,30.03,12,1,12,0.00
2013-12-21,70,59,52,58,53,49,90,80,59,30.06,29.94,15,2,15,0.00
2013-12-22,73,65,62,66,61,58,95,87,76,30.02,29.85,23,3,23,0.03
2013-12-23,64,57,42,64,56,37,100,95,83,30.19,29.93,12,1,13,0.52
2013-12-24,42,36,28,38,25,14,84,65,49,30.40,30.13,15,2,15,0.00
2013-12-25,31,25,19,19,12,9,75,58,43,30.58,30.40,14,1,14,0.00
2013-12-26,41,29,20,28,23,17,93,79,58,30.47,30.21,16,0,16,0.00
2013-12-27,45,31,22,24,22,16,94,71,38,30.44,30.32,11,0,11,0.00
2013-12-28,59,41,22,31,27,20,93,62,34,30.35,30.13,17,1,18,0.00
2013-12-29,53,44,40,53,39,30,100,84,58,30.13,29.43,16,1,19,1.27
2013-12-30,47,38,25,41,32,15,98,79,58,30.23,29.75,13,1,13,0.00
2013-12-31,37,29,20,27,17,12,83,62,51,30.35,30.11,15,1,15,0.00
2014-1-1,41,30,20,31,20,12,85,66,45,30.47,30.26,10,0,10,0.00
2014-1-2,38,31,23,35,29,22,97,92,84,30.26,29.65,14,3,14,0.00